Latest Coastal Weather Observations for Merimbula

IDN60701

Issued at 2:51 pm EDT Saturday 25 March 2017 (issued every 10 minutes, with the page automatically refreshed every 10 minutes)

About coastal observations | Map of coastal stations | Coastal observations for NSW | Marine services | Other Formats
Station Details ID: 069147 Name: MERIMBULA AIRPORT AWS Lat: -36.91 Lon: 149.90 Height: 1.5 m
Data from the previous 72 hours. | See also: Recent months at Merimbula
Date/Time
EDT
Temp
°C
Wind Pressure Rain since
9am
mm
Weather Cloud Vis
km
Sea
Height
m
Swell
Dir  Spd
kts
Gust
kts
hPa Trend Height
m
Period
s
Dir
25/02:30pm 23.9 NE 6 9 1012.9 - 0.0 - - 10 - - - -
25/02:00pm 23.2 NE 5 8 1013.2 - 0.0 - - 10 - - - -
25/01:30pm 23.2 NNE 5 9 1013.7 - 0.0 - - 10 - - - -
25/01:00pm 22.1 N 5 8 1014.3 - 0.0 - - 10 - - - -
25/12:30pm 21.3 NNE 3 5 1014.7 - 0.0 - - 10 - - - -
25/12:00pm 20.7 NE 2 6 1015.1 - 0.0 - Partly cloudy 10 - - - -
25/11:30am 20.6 N 4 6 1015.5 - 0.0 - - 10 - - - -
25/11:00am 20.5 NW 4 7 1015.8 - 0.0 - - 10 - - - -
25/10:30am 19.8 NW 4 7 1015.7 - 0.0 - - 10 - - - -
25/10:00am 19.5 CALM 0 0 1015.5 - 0.0 - - 10 - - - -
25/09:30am 18.5 CALM 0 0 1015.6 - 0.0 - - 10 - - - -
25/09:00am 17.8 NNW 1 5 1015.7 - 0.0 - Cloudy 10 - - - -
25/08:30am 16.9 CALM 0 0 1015.9 - 0.0 - - 10 - - - -
25/08:00am 15.7 CALM 0 0 1016.2 - 0.0 - - 10 - - - -
25/07:30am 15.0 CALM 0 0 1016.0 - 0.0 - - 10 - - - -
25/07:00am 15.0 CALM 0 0 1016.2 - 0.0 - - 10 - - - -
25/06:30am 15.2 CALM 0 0 1016.2 - 0.0 - - 10 - - - -
25/06:00am 15.4 CALM 0 0 1016.5 - 0.0 - Partly cloudy 10 - - - -
25/05:30am 15.5 CALM 0 0 1015.8 - 0.0 - - 10 - - - -
25/05:00am 15.5 CALM 0 0 1016.5 - 0.0 - - 10 - - - -
25/04:30am 15.6 CALM 0 0 1016.8 - 0.0 - - 10 - - - -
25/04:00am 16.2 CALM 0 0 1016.5 - 0.0 - Partly cloudy 10 - - - -
25/03:30am 17.0 CALM 0 3 1016.9 - 0.0 - Partly cloudy 10 - - - -
25/03:00am 17.8 NW 4 7 1017.4 - 0.0 - Mostly cloudy 10 - - - -
25/02:30am 17.8 WNW 4 6 1017.7 - 0.0 - Partly cloudy 10 - - - -
25/02:00am 17.9 NW 5 7 1017.9 - 0.0 - Partly cloudy 10 - - - -
25/01:30am 18.0 WNW 5 7 1018.4 - 0.0 - Partly cloudy 10 - - - -
25/01:00am 18.0 NW 5 7 1018.4 - 0.0 - Partly cloudy 10 - - - -
25/12:30am 18.0 NW 5 7 1018.5 - 0.0 - Partly cloudy 10 - - - -
25/12:00am 18.2 NW 3 6 1019.0 - 0.0 - Cloudy 10 - - - -
 
Date/Time
EDT
Temp
°C
Wind Pressure Rain since
9am
mm
Weather Cloud Vis
km
Sea
Height
m
Swell
Dir  Spd
kts
Gust
kts
hPa Trend Height
m
Period
s
Dir
24/11:30pm 18.2 NW 5 7 1019.4 - 0.0 - Partly cloudy 10 - - - -
24/11:00pm 18.4 NW 5 7 1019.9 - 0.0 - Partly cloudy 10 - - - -
24/10:30pm 18.3 NW 5 7 1019.9 - 0.0 - Partly cloudy 10 - - - -
24/10:00pm 18.5 NW 1 6 1020.2 - 0.0 - Partly cloudy 10 - - - -
24/09:30pm 18.6 CALM 0 4 1020.6 - 0.0 - Partly cloudy 10 - - - -
24/09:00pm 19.0 WNW 5 7 1020.6 - 0.0 - Cloudy 10 - - - -
24/08:30pm 19.2 N 2 5 1020.0 - 0.0 - Cloudy 10 - - - -
24/08:00pm 19.4 NNE 3 5 1020.0 - 0.0 - Cloudy 10 - - - -
24/07:30pm 19.2 CALM 0 0 1020.1 - 0.0 - Cloudy 9 - - - -
24/07:00pm 19.7 NE 5 6 1020.0 - 0.0 - Cloudy 10 - - - -
24/06:30pm 19.9 ENE 4 6 1020.1 - 0.0 - Cloudy 9 - - - -
24/06:00pm 20.3 E 4 7 1020.1 - 0.0 - Cloudy 10 - - - -
24/05:30pm 20.7 E 4 6 1019.5 - 0.0 - Partly cloudy 10 - - - -
24/05:00pm 20.9 E 5 8 1019.5 - 0.0 - Partly cloudy 10 - - - -
24/04:30pm 21.2 E 5 8 1019.4 - 0.0 - Partly cloudy 10 - - - -
24/04:00pm 21.3 E 7 10 1019.7 - 0.0 - Partly cloudy 10 - - - -
24/03:30pm 22.1 ESE 5 8 1020.1 - 0.0 - Partly cloudy 10 - - - -
24/03:00pm 22.6 ESE 7 10 1020.6 - 0.0 - Cloudy 10 - - - -
24/02:30pm 21.8 ESE 6 11 1020.9 - 0.0 - Cloudy 10 - - - -
24/02:00pm 22.2 ESE 7 11 1021.2 - 0.0 - Cloudy 10 - - - -
24/01:30pm 22.5 ESE 7 11 1021.4 - 0.0 - Partly cloudy 10 - - - -
24/01:00pm 21.6 SE 8 12 1021.7 - 0.0 - Cloudy 10 - - - -
24/12:30pm 21.6 SE 7 10 1022.0 - 0.0 - Partly cloudy 10 - - - -
24/12:00pm 21.2 SE 6 9 1022.3 - 0.0 - Cloudy 10 - - - -
24/11:30am 20.1 CALM 0 0 1022.3 - 0.0 - Cloudy 9 - - - -
24/11:19am 20.0 CALM 0 0 1022.3 - 0.0 - Partly cloudy 5 - - - -
24/11:00am 19.9 CALM 0 0 1022.3 - 0.0 - Partly cloudy 10 - - - -
24/10:30am 19.8 CALM 0 0 1022.2 - 0.0 - Partly cloudy 10 - - - -
24/10:00am 19.0 SSW 4 5 1022.2 - 0.0 - Partly cloudy 10 - - - -
24/09:30am 19.3 CALM 0 0 1022.0 - 0.0 - Partly cloudy 10 - - - -
24/09:00am 18.1 WNW 3 5 1021.8 - 16.0 - Mostly cloudy 10 - - - -
24/08:30am 17.3 WNW 5 7 1021.7 - 16.0 - Cloudy 10 - - - -
24/08:00am 16.5 WNW 5 5 1021.4 - 16.0 - Partly cloudy 10 - - - -
24/07:30am 16.1 W 4 6 1021.4 - 16.0 - Partly cloudy 10 - - - -
24/07:00am 15.9 WNW 5 6 1021.1 - 16.0 - Partly cloudy 10 - - - -
24/06:30am 16.3 WNW 5 6 1021.0 - 16.0 - Partly cloudy 10 - - - -
24/06:00am 16.4 WNW 6 8 1020.9 - 16.0 Recent precip. Cloudy 10 - - - -
24/05:53am 16.4 NW 5 8 1020.9 - 16.0 - Partly cloudy 10 - - - -
24/05:30am 16.4 SW 2 6 1021.0 - 15.8 - Partly cloudy 7 - - - -
24/05:17am 16.4 CALM 0 0 1021.0 - 15.8 - Partly cloudy 5 - - - -
24/05:00am 16.4 SSE 1 5 1021.0 - 15.8 - Partly cloudy 6 - - - -
24/04:30am 16.1 SW 2 4 1020.9 - 15.6 - Partly cloudy 10 - - - -
24/04:00am 16.7 WNW 4 6 1020.9 - 15.6 - Partly cloudy 10 - - - -
24/03:30am 16.7 NW 5 7 1020.9 - 15.6 - Partly cloudy 10 - - - -
24/03:00am 16.6 CALM 0 0 1021.3 - 15.6 - Cloudy 10 - - - -
24/02:30am 16.6 CALM 0 0 1021.4 - 15.6 - Partly cloudy 10 - - - -
24/02:04am 16.6 WSW 3 6 1021.6 - 15.6 - Partly cloudy 10 - - - -
24/02:00am 16.6 WSW 4 6 1021.6 - 15.6 - Partly cloudy 10 - - - -
24/01:52am 16.6 W 4 6 1021.7 - 15.6 - Partly cloudy 5 - - - -
24/01:30am 16.6 CALM 0 0 1021.7 - 15.6 - Partly cloudy 10 - - - -
24/01:00am 16.6 WNW 3 5 1021.7 - 15.6 - Partly cloudy 10 - - - -
24/12:56am 16.6 W 4 5 1021.6 - 15.6 - Partly cloudy 10 - - - -
24/12:46am 16.6 SW 5 6 1021.7 - 15.6 - Partly cloudy 5 - - - -
24/12:30am 16.6 SSW 2 4 1021.7 - 15.6 - Partly cloudy 10 - - - -
24/12:00am 16.6 WNW 5 6 1021.6 - 15.6 Recent precip. Cloudy 10 - - - -
 
Date/Time
EDT
Temp
°C
Wind Pressure Rain since
9am
mm
Weather Cloud Vis
km
Sea
Height
m
Swell
Dir  Spd
kts
Gust
kts
hPa Trend Height
m
Period
s
Dir
23/11:30pm 16.7 W 4 5 1021.6 - 15.2 - Partly cloudy 10 - - - -
23/11:04pm 16.8 SW 4 7 1021.7 - 15.2 - Partly cloudy 10 - - - -
23/11:00pm 16.8 SW 4 7 1021.7 - 15.2 - Partly cloudy 10 - - - -
23/10:48pm 16.8 SSW 7 9 1021.8 - 15.2 - Partly cloudy 5 - - - -
23/10:30pm 17.0 SSW 7 10 1021.7 - 15.2 - Cloudy 10 - - - -
23/10:00pm 17.0 SSW 5 7 1021.7 - 15.2 - Partly cloudy 10 - - - -
23/09:30pm 17.0 SW 4 6 1021.5 - 15.2 - Partly cloudy 10 - - - -
23/09:00pm 17.2 SW 4 6 1021.3 - 15.2 - Cloudy 10 - - - -
23/08:30pm 17.3 SW 3 5 1020.9 - 15.2 - Partly cloudy 10 - - - -
23/08:00pm 17.3 SW 4 8 1020.6 - 15.2 - Partly cloudy 10 - - - -
23/07:30pm 17.4 SSW 6 9 1020.4 - 15.2 - Partly cloudy 10 - - - -
23/07:29pm 17.5 SSW 6 9 1020.4 - 15.0 - Partly cloudy 10 - - - -
23/07:16pm 17.5 SSW 5 7 1020.4 - 15.0 - Partly cloudy 5 - - - -
23/07:00pm 17.5 SW 4 5 1020.2 - 14.8 - Partly cloudy 10 - - - -
23/06:46pm 17.4 SW 4 7 1020.2 - 14.8 - Partly cloudy 10 - - - -
23/06:30pm 17.5 CALM 0 0 1020.1 - 14.8 - Partly cloudy 2 - - - -
23/06:14pm 17.6 CALM 0 0 1020.1 - 13.8 - Partly cloudy 5 - - - -
23/06:00pm 17.6 SW 1 5 1019.7 - 13.6 Recent precip. Mostly cloudy 10 - - - -
23/05:58pm 17.6 SW 2 5 1019.8 - 13.6 - Partly cloudy 10 - - - -
23/05:32pm 17.7 SW 3 8 1020.1 - 13.6 - Partly cloudy 5 - - - -
23/05:30pm 17.7 SW 4 8 1020.2 - 13.4 - Partly cloudy 10 - - - -
23/05:00pm 17.7 SSW 5 9 1019.7 - 13.4 - Partly cloudy 10 - - - -
23/04:30pm 17.5 SW 5 7 1019.9 - 13.4 - Partly cloudy 10 - - - -
23/04:18pm 17.5 WSW 5 7 1019.9 - 13.2 - Partly cloudy 10 - - - -
23/04:01pm 17.5 WSW 5 7 1019.8 - 12.6 - Partly cloudy 6 - - - -
23/04:00pm 17.5 WSW 5 8 1019.8 - 12.4 - Partly cloudy 6 - - - -
23/03:30pm 17.7 SW 5 8 1020.0 - 9.4 - Partly cloudy 2 - - - -
23/03:11pm 18.0 SSW 6 10 1019.9 - 8.0 - Partly cloudy 3 - - - -
23/03:00pm 18.0 SW 5 9 1020.1 - 7.0 Rain Cloudy 4 - - - -
23/02:30pm 18.1 SSW 6 10 1020.1 - 4.4 - Partly cloudy 4 - - - -
23/02:20pm 18.2 S 9 13 1020.2 - 4.4 - Partly cloudy 5 - - - -
23/02:08pm 18.6 S 4 6 1020.1 - 4.0 - Partly cloudy 8 - - - -
23/02:00pm 18.7 SSW 4 6 1020.2 - 4.0 - Partly cloudy 6 - - - -
23/01:30pm 18.5 SSE 11 16 1020.4 - 0.4 - Partly cloudy 4 - - - -
23/01:29pm 18.6 SSE 11 16 1020.4 - 0.2 - Partly cloudy 5 - - - -
23/01:00pm 21.5 SSW 7 11 1020.2 - 0.0 - Partly cloudy 10 - - - -
23/12:30pm 22.5 SSE 8 14 1020.3 - 0.0 - Partly cloudy 10 - - - -
23/12:00pm 21.6 S 8 13 1020.7 - 0.0 - Cloudy 10 - - - -
23/11:30am 20.5 SW 7 11 1021.0 - 0.0 - Partly cloudy 10 - - - -
23/11:00am 20.2 S 7 10 1021.2 - 0.0 - Partly cloudy 10 - - - -
23/10:30am 20.0 SSW 7 11 1021.2 - 0.0 - Partly cloudy 10 - - - -
23/10:00am 20.0 SSW 7 11 1021.0 - 0.0 - Partly cloudy 10 - - - -
23/09:30am 19.0 SSW 6 9 1020.9 - 0.0 - Partly cloudy 10 - - - -
23/09:00am 18.3 SW 6 9 1020.7 - 0.6 - Mostly cloudy 10 - - - -
23/08:30am 17.9 SW 7 11 1020.6 - 0.6 - Partly cloudy 10 - - - -
23/08:00am 17.7 SSW 5 8 1020.3 - 0.6 - Partly cloudy 10 - - - -
23/07:30am 17.5 SW 5 7 1020.1 - 0.6 - Partly cloudy 10 - - - -
23/07:00am 17.4 SW 4 6 1019.9 - 0.6 - Partly cloudy 10 - - - -
23/06:30am 17.3 SW 6 9 1019.7 - 0.6 - Partly cloudy 10 - - - -
23/06:00am 17.1 SW 5 7 1019.5 - 0.6 - Partly cloudy 10 - - - -
23/05:42am 17.1 SW 6 9 1019.5 - 0.6 - Partly cloudy 10 - - - -
23/05:32am 17.1 SSW 5 8 1019.5 - 0.6 - Partly cloudy 5 - - - -
23/05:30am 17.1 SSW 5 8 1019.5 - 0.6 - Partly cloudy 6 - - - -
23/05:00am 17.2 SW 6 9 1019.2 - 0.6 - Partly cloudy 10 - - - -
23/04:30am 17.2 SW 6 9 1019.2 - 0.6 - Partly cloudy 10 - - - -
23/04:28am 17.2 SW 6 9 1019.2 - 0.6 - Partly cloudy 10 - - - -
23/04:12am 17.4 SW 6 9 1019.1 - 0.6 - Partly cloudy 5 - - - -
23/04:00am 17.5 SW 6 10 1019.1 - 0.6 - Partly cloudy 10 - - - -
23/03:30am 17.6 SW 6 9 1019.1 - 0.6 - Partly cloudy 10 - - - -
23/03:28am 17.6 SW 6 9 1019.1 - 0.6 - Partly cloudy 10 - - - -
23/03:00am 17.6 SW 4 7 1019.1 - 0.6 - Cloudy 10 - - - -
23/02:30am 17.5 SW 5 10 1019.1 - 0.6 - Partly cloudy 10 - - - -
23/02:17am 17.5 SW 5 7 1019.1 - 0.6 - Partly cloudy 10 - - - -
23/02:00am 17.4 WSW 4 7 1019.1 - 0.6 - Partly cloudy 10 - - - -
23/01:50am 17.4 SW 5 9 1019.2 - 0.4 - Partly cloudy 10 - - - -
23/01:30am 17.4 SW 6 9 1019.2 - 0.4 - Partly cloudy 4 - - - -
23/01:22am 17.5 SSW 7 10 1019.2 - 0.4 - Partly cloudy 5 - - - -
23/01:00am 17.8 SW 6 10 1019.3 - 0.4 - Partly cloudy 10 - - - -
23/12:30am 18.0 SW 7 11 1019.2 - 0.2 - Partly cloudy 10 - - - -
23/12:00am 17.9 SSW 7 11 1019.2 - 0.2 - Cloudy 10 - - - -
 
Date/Time
EDT
Temp
°C
Wind Pressure Rain since
9am
mm
Weather Cloud Vis
km
Sea
Height
m
Swell
Dir  Spd
kts
Gust
kts
hPa Trend Height
m
Period
s
Dir
22/11:30pm 18.0 SSW 9 13 1019.4 - 0.2 - Partly cloudy 10 - - - -
22/11:00pm 17.9 SW 6 10 1019.4 - 0.2 - Partly cloudy 10 - - - -
22/10:30pm 17.7 SW 8 12 1019.1 - 0.2 - Partly cloudy 10 - - - -
22/10:00pm 17.7 SW 7 11 1018.9 - 0.2 - Partly cloudy 7 - - - -
22/09:30pm 17.7 SW 7 12 1018.6 - 0.2 - Partly cloudy 10 - - - -
22/09:22pm 17.7 SW 7 11 1018.4 - 0.2 - Partly cloudy 7 - - - -
22/09:09pm 17.8 SSW 8 13 1018.3 - 0.2 - Partly cloudy 5 - - - -
22/09:00pm 18.0 SSW 7 11 1018.2 - 0.2 - Cloudy 10 - - - -
22/08:58pm 18.0 SSW 7 11 1018.2 - 0.2 - Partly cloudy 10 - - - -
22/08:30pm 18.1 SW 8 13 1017.7 - 0.2 - Partly cloudy 10 - - - -
22/08:13pm 18.0 SW 8 11 1017.5 - 0.2 - Partly cloudy 10 - - - -
22/08:00pm 18.0 SSW 8 13 1017.4 - 0.2 - Partly cloudy 4 - - - -
22/07:54pm 18.1 SSW 9 14 1017.3 - 0.2 - Partly cloudy 5 - - - -
22/07:45pm 18.2 SSW 8 11 1017.1 - 0.2 - Partly cloudy 10 - - - -
22/07:30pm 18.1 SSW 8 13 1016.8 - 0.2 - Partly cloudy 5 - - - -
22/07:24pm 18.3 SSW 8 11 1016.6 - 0.2 - Partly cloudy 5 - - - -
22/07:00pm 18.7 SSW 9 16 1016.1 - 0.2 - Partly cloudy 10 - - - -
22/06:30pm 19.3 SSW 10 16 1015.7 - 0.2 - Partly cloudy 10 - - - -
22/06:00pm 19.8 SSW 11 18 1015.2 - 0.2 - Cloudy 10 - - - -
22/05:30pm 20.6 SSW 12 20 1014.6 - 0.2 - Partly cloudy 10 - - - -
22/05:00pm 21.1 S 13 22 1014.4 - 0.2 - Partly cloudy 10 - - - -
22/04:30pm 20.9 S 11 17 1014.2 - 0.2 - Partly cloudy 10 - - - -
22/04:00pm 22.4 SSW 9 14 1013.7 - 0.2 - Partly cloudy 10 - - - -
22/03:30pm 23.0 SSW 14 22 1013.0 - 0.2 - Partly cloudy 10 - - - -
22/03:00pm 24.6 SSW 11 18 1012.6 - 0.2 - Mostly cloudy 10 - - - -

Other Formats:

Comma delimited format used in spreadsheet applications
http://www.bom.gov.au/fwo/IDN60701/IDN60701.95929.axf

JavaScript Object Notation format (JSON) in row-major order
http://www.bom.gov.au/fwo/IDN60701/IDN60701.95929.json